sensor_id;sensor_type;location;lat;lon;timestamp;P1;durP1;ratioP1;P2;durP2;ratioP2
77738;SDS011;66904;59.926;30.404;2023-07-20T00:02:43;0.63;;;0.30;;
77738;SDS011;66904;59.926;30.404;2023-07-20T00:07:44;1.23;;;0.40;;
77738;SDS011;66904;59.926;30.404;2023-07-20T00:12:44;1.52;;;0.55;;
77738;SDS011;66904;59.926;30.404;2023-07-20T00:17:47;2.03;;;0.80;;
77738;SDS011;66904;59.926;30.404;2023-07-20T00:22:48;0.98;;;0.60;;
77738;SDS011;66904;59.926;30.404;2023-07-20T00:27:51;1.23;;;0.43;;
77738;SDS011;66904;59.926;30.404;2023-07-20T00:32:51;0.40;;;0.20;;
77738;SDS011;66904;59.926;30.404;2023-07-20T00:37:52;0.93;;;0.70;;
77738;SDS011;66904;59.926;30.404;2023-07-20T00:42:53;0.40;;;0.28;;
77738;SDS011;66904;59.926;30.404;2023-07-20T00:47:54;0.40;;;0.28;;
77738;SDS011;66904;59.926;30.404;2023-07-20T00:52:55;0.47;;;0.25;;
77738;SDS011;66904;59.926;30.404;2023-07-20T00:57:56;1.00;;;0.45;;
77738;SDS011;66904;59.926;30.404;2023-07-20T01:02:57;0.80;;;0.50;;
77738;SDS011;66904;59.926;30.404;2023-07-20T01:07:59;0.57;;;0.43;;
77738;SDS011;66904;59.926;30.404;2023-07-20T01:13:07;0.85;;;0.40;;
77738;SDS011;66904;59.926;30.404;2023-07-20T01:18:10;0.57;;;0.45;;
77738;SDS011;66904;59.926;30.404;2023-07-20T01:34:24;0.57;;;0.30;;
77738;SDS011;66904;59.926;30.404;2023-07-20T01:39:26;0.50;;;0.32;;
77738;SDS011;66904;59.926;30.404;2023-07-20T01:44:28;0.75;;;0.43;;
77738;SDS011;66904;59.926;30.404;2023-07-20T01:49:29;0.60;;;0.38;;
77738;SDS011;66904;59.926;30.404;2023-07-20T01:54:30;0.22;;;0.22;;
77738;SDS011;66904;59.926;30.404;2023-07-20T01:59:30;0.63;;;0.30;;
77738;SDS011;66904;59.926;30.404;2023-07-20T02:04:31;0.82;;;0.32;;
77738;SDS011;66904;59.926;30.404;2023-07-20T02:09:31;0.25;;;0.13;;
77738;SDS011;66904;59.926;30.404;2023-07-20T02:14:32;1.00;;;0.60;;
77738;SDS011;66904;59.926;30.404;2023-07-20T02:19:33;1.70;;;0.30;;
77738;SDS011;66904;59.926;30.404;2023-07-20T02:24:34;0.50;;;0.17;;
77738;SDS011;66904;59.926;30.404;2023-07-20T02:29:34;0.60;;;0.45;;
77738;SDS011;66904;59.926;30.404;2023-07-20T02:34:36;0.38;;;0.30;;
77738;SDS011;66904;59.926;30.404;2023-07-20T02:39:36;0.38;;;0.28;;
77738;SDS011;66904;59.926;30.404;2023-07-20T02:44:37;0.80;;;0.40;;
77738;SDS011;66904;59.926;30.404;2023-07-20T02:49:37;0.85;;;0.55;;
77738;SDS011;66904;59.926;30.404;2023-07-20T02:54:40;0.60;;;0.20;;
77738;SDS011;66904;59.926;30.404;2023-07-20T02:59:41;1.23;;;0.50;;
77738;SDS011;66904;59.926;30.404;2023-07-20T03:04:41;1.40;;;0.30;;
77738;SDS011;66904;59.926;30.404;2023-07-20T03:09:42;1.23;;;0.60;;
77738;SDS011;66904;59.926;30.404;2023-07-20T03:14:43;0.65;;;0.40;;
77738;SDS011;66904;59.926;30.404;2023-07-20T03:19:44;0.95;;;0.30;;
77738;SDS011;66904;59.926;30.404;2023-07-20T03:24:44;0.88;;;0.30;;
77738;SDS011;66904;59.926;30.404;2023-07-20T03:29:45;1.40;;;0.40;;
77738;SDS011;66904;59.926;30.404;2023-07-20T03:34:45;0.47;;;0.15;;
77738;SDS011;66904;59.926;30.404;2023-07-20T03:39:46;0.50;;;0.40;;
77738;SDS011;66904;59.926;30.404;2023-07-20T03:44:46;0.85;;;0.30;;
77738;SDS011;66904;59.926;30.404;2023-07-20T03:49:47;0.85;;;0.30;;
77738;SDS011;66904;59.926;30.404;2023-07-20T03:54:48;0.30;;;0.20;;
77738;SDS011;66904;59.926;30.404;2023-07-20T03:59:48;1.85;;;0.40;;
77738;SDS011;66904;59.926;30.404;2023-07-20T04:04:49;0.98;;;0.43;;
77738;SDS011;66904;59.926;30.404;2023-07-20T04:09:50;1.15;;;0.47;;
77738;SDS011;66904;59.926;30.404;2023-07-20T04:14:50;0.47;;;0.30;;
77738;SDS011;66904;59.926;30.404;2023-07-20T04:19:51;1.08;;;0.38;;
77738;SDS011;66904;59.926;30.404;2023-07-20T04:24:51;0.60;;;0.57;;
77738;SDS011;66904;59.926;30.404;2023-07-20T04:29:52;5.10;;;0.60;;
77738;SDS011;66904;59.926;30.404;2023-07-20T04:34:53;0.52;;;0.13;;
77738;SDS011;66904;59.926;30.404;2023-07-20T04:39:53;1.00;;;0.40;;
77738;SDS011;66904;59.926;30.404;2023-07-20T04:44:54;0.88;;;0.50;;
77738;SDS011;66904;59.926;30.404;2023-07-20T04:49:54;0.57;;;0.30;;
77738;SDS011;66904;59.926;30.404;2023-07-20T04:54:55;1.15;;;0.75;;
77738;SDS011;66904;59.926;30.404;2023-07-20T04:59:56;3.60;;;0.60;;
77738;SDS011;66904;59.926;30.404;2023-07-20T05:04:57;1.33;;;0.77;;
77738;SDS011;66904;59.926;30.404;2023-07-20T05:09:58;3.35;;;0.60;;
77738;SDS011;66904;59.926;30.404;2023-07-20T05:14:59;1.08;;;0.65;;
77738;SDS011;66904;59.926;30.404;2023-07-20T05:19:59;1.15;;;0.80;;
77738;SDS011;66904;59.926;30.404;2023-07-20T05:25:00;1.35;;;0.60;;
77738;SDS011;66904;59.926;30.404;2023-07-20T05:30:01;0.93;;;0.50;;
77738;SDS011;66904;59.926;30.404;2023-07-20T05:35:01;0.88;;;0.40;;
77738;SDS011;66904;59.926;30.404;2023-07-20T05:40:02;1.23;;;0.50;;
77738;SDS011;66904;59.926;30.404;2023-07-20T05:45:03;1.02;;;0.70;;
77738;SDS011;66904;59.926;30.404;2023-07-20T05:50:05;1.75;;;0.35;;
77738;SDS011;66904;59.926;30.404;2023-07-20T05:55:06;1.35;;;0.47;;
77738;SDS011;66904;59.926;30.404;2023-07-20T06:00:07;0.68;;;0.40;;
77738;SDS011;66904;59.926;30.404;2023-07-20T06:05:09;0.60;;;0.40;;
77738;SDS011;66904;59.926;30.404;2023-07-20T06:10:09;0.82;;;0.50;;
77738;SDS011;66904;59.926;30.404;2023-07-20T06:15:26;0.77;;;0.50;;
77738;SDS011;66904;59.926;30.404;2023-07-20T06:20:36;0.60;;;0.32;;
77738;SDS011;66904;59.926;30.404;2023-07-20T06:25:36;0.40;;;0.20;;
77738;SDS011;66904;59.926;30.404;2023-07-20T06:30:37;0.82;;;0.38;;
77738;SDS011;66904;59.926;30.404;2023-07-20T06:35:37;1.08;;;0.60;;
77738;SDS011;66904;59.926;30.404;2023-07-20T06:40:43;0.63;;;0.30;;
77738;SDS011;66904;59.926;30.404;2023-07-20T06:45:43;0.70;;;0.30;;
77738;SDS011;66904;59.926;30.404;2023-07-20T06:50:44;1.27;;;0.38;;
77738;SDS011;66904;59.926;30.404;2023-07-20T06:55:44;0.93;;;0.47;;
77738;SDS011;66904;59.926;30.404;2023-07-20T07:00:45;0.63;;;0.30;;
77738;SDS011;66904;59.926;30.404;2023-07-20T07:05:45;0.75;;;0.45;;
77738;SDS011;66904;59.926;30.404;2023-07-20T07:10:46;1.02;;;0.60;;
77738;SDS011;66904;59.926;30.404;2023-07-20T07:15:46;0.45;;;0.25;;
77738;SDS011;66904;59.926;30.404;2023-07-20T07:20:50;0.50;;;0.20;;
77738;SDS011;66904;59.926;30.404;2023-07-20T07:25:52;0.25;;;0.25;;
77738;SDS011;66904;59.926;30.404;2023-07-20T07:30:55;0.13;;;0.10;;
77738;SDS011;66904;59.926;30.404;2023-07-20T07:35:57;0.32;;;0.30;;
77738;SDS011;66904;59.926;30.404;2023-07-20T07:40:58;0.50;;;0.30;;
77738;SDS011;66904;59.926;30.404;2023-07-20T07:45:59;0.30;;;0.25;;
77738;SDS011;66904;59.926;30.404;2023-07-20T07:50:59;0.90;;;0.50;;
77738;SDS011;66904;59.926;30.404;2023-07-20T07:56:00;0.30;;;0.20;;
77738;SDS011;66904;59.926;30.404;2023-07-20T08:01:00;0.40;;;0.30;;
77738;SDS011;66904;59.926;30.404;2023-07-20T08:06:01;1.10;;;0.40;;
77738;SDS011;66904;59.926;30.404;2023-07-20T08:11:04;0.40;;;0.25;;
77738;SDS011;66904;59.926;30.404;2023-07-20T08:16:05;0.73;;;0.63;;
77738;SDS011;66904;59.926;30.404;2023-07-20T08:21:06;0.50;;;0.28;;
77738;SDS011;66904;59.926;30.404;2023-07-20T08:26:06;1.95;;;0.30;;
77738;SDS011;66904;59.926;30.404;2023-07-20T08:31:07;0.65;;;0.30;;
77738;SDS011;66904;59.926;30.404;2023-07-20T08:36:07;0.57;;;0.40;;
77738;SDS011;66904;59.926;30.404;2023-07-20T08:41:09;0.50;;;0.30;;
77738;SDS011;66904;59.926;30.404;2023-07-20T08:46:10;0.90;;;0.20;;
77738;SDS011;66904;59.926;30.404;2023-07-20T08:51:13;1.17;;;0.40;;
77738;SDS011;66904;59.926;30.404;2023-07-20T08:56:15;0.52;;;0.40;;
77738;SDS011;66904;59.926;30.404;2023-07-20T09:01:17;0.80;;;0.50;;
77738;SDS011;66904;59.926;30.404;2023-07-20T09:06:20;0.43;;;0.38;;
77738;SDS011;66904;59.926;30.404;2023-07-20T09:11:21;0.50;;;0.40;;
77738;SDS011;66904;59.926;30.404;2023-07-20T09:16:21;1.05;;;0.40;;
77738;SDS011;66904;59.926;30.404;2023-07-20T09:21:22;0.22;;;0.08;;
77738;SDS011;66904;59.926;30.404;2023-07-20T09:26:22;0.32;;;0.30;;
77738;SDS011;66904;59.926;30.404;2023-07-20T09:31:23;2.28;;;0.40;;
77738;SDS011;66904;59.926;30.404;2023-07-20T09:36:25;0.50;;;0.20;;
77738;SDS011;66904;59.926;30.404;2023-07-20T09:41:27;0.30;;;0.30;;
77738;SDS011;66904;59.926;30.404;2023-07-20T09:46:40;0.10;;;0.10;;
77738;SDS011;66904;59.926;30.404;2023-07-20T09:51:41;0.60;;;0.20;;
77738;SDS011;66904;59.926;30.404;2023-07-20T09:56:43;0.20;;;0.20;;
77738;SDS011;66904;59.926;30.404;2023-07-20T10:01:46;2.13;;;0.50;;
77738;SDS011;66904;59.926;30.404;2023-07-20T10:06:47;0.43;;;0.20;;
77738;SDS011;66904;59.926;30.404;2023-07-20T10:11:52;0.32;;;0.30;;
77738;SDS011;66904;59.926;30.404;2023-07-20T10:16:55;1.65;;;0.30;;
77738;SDS011;66904;59.926;30.404;2023-07-20T10:22:03;0.35;;;0.32;;
77738;SDS011;66904;59.926;30.404;2023-07-20T10:27:10;0.40;;;0.30;;
77738;SDS011;66904;59.926;30.404;2023-07-20T10:32:11;0.25;;;0.20;;
77738;SDS011;66904;59.926;30.404;2023-07-20T10:37:14;0.57;;;0.32;;
77738;SDS011;66904;59.926;30.404;2023-07-20T10:42:51;0.20;;;0.15;;
77738;SDS011;66904;59.926;30.404;2023-07-20T10:47:56;0.80;;;0.30;;
77738;SDS011;66904;59.926;30.404;2023-07-20T10:58:19;1.35;;;0.52;;
77738;SDS011;66904;59.926;30.404;2023-07-20T11:03:27;0.55;;;0.30;;
77738;SDS011;66904;59.926;30.404;2023-07-20T11:08:38;0.30;;;0.28;;
77738;SDS011;66904;59.926;30.404;2023-07-20T11:13:53;3.33;;;0.45;;
77738;SDS011;66904;59.926;30.404;2023-07-20T11:19:04;3.00;;;0.60;;
77738;SDS011;66904;59.926;30.404;2023-07-20T11:24:06;1.27;;;0.50;;
77738;SDS011;66904;59.926;30.404;2023-07-20T11:29:07;0.88;;;0.63;;
77738;SDS011;66904;59.926;30.404;2023-07-20T11:34:10;0.70;;;0.30;;
77738;SDS011;66904;59.926;30.404;2023-07-20T11:39:15;1.98;;;0.47;;
77738;SDS011;66904;59.926;30.404;2023-07-20T11:44:19;0.68;;;0.43;;
77738;SDS011;66904;59.926;30.404;2023-07-20T11:49:26;0.35;;;0.20;;
77738;SDS011;66904;59.926;30.404;2023-07-20T11:54:27;0.90;;;0.40;;
77738;SDS011;66904;59.926;30.404;2023-07-20T11:59:28;0.40;;;0.30;;
77738;SDS011;66904;59.926;30.404;2023-07-20T12:04:28;0.93;;;0.45;;
77738;SDS011;66904;59.926;30.404;2023-07-20T12:09:31;0.68;;;0.50;;
77738;SDS011;66904;59.926;30.404;2023-07-20T12:14:32;0.80;;;0.43;;
77738;SDS011;66904;59.926;30.404;2023-07-20T12:19:32;0.73;;;0.73;;
77738;SDS011;66904;59.926;30.404;2023-07-20T12:24:37;0.38;;;0.28;;
77738;SDS011;66904;59.926;30.404;2023-07-20T12:29:38;4.05;;;0.63;;
77738;SDS011;66904;59.926;30.404;2023-07-20T12:34:39;0.47;;;0.25;;
77738;SDS011;66904;59.926;30.404;2023-07-20T12:39:39;0.65;;;0.20;;
77738;SDS011;66904;59.926;30.404;2023-07-20T12:44:40;0.43;;;0.40;;
77738;SDS011;66904;59.926;30.404;2023-07-20T12:49:41;0.40;;;0.20;;
77738;SDS011;66904;59.926;30.404;2023-07-20T12:54:45;0.60;;;0.20;;
77738;SDS011;66904;59.926;30.404;2023-07-20T12:59:45;0.30;;;0.10;;
77738;SDS011;66904;59.926;30.404;2023-07-20T13:04:46;0.30;;;0.20;;
77738;SDS011;66904;59.926;30.404;2023-07-20T13:09:46;0.30;;;0.20;;
77738;SDS011;66904;59.926;30.404;2023-07-20T13:14:47;0.40;;;0.40;;
77738;SDS011;66904;59.926;30.404;2023-07-20T13:19:47;0.85;;;0.50;;
77738;SDS011;66904;59.926;30.404;2023-07-20T13:24:48;1.02;;;0.93;;
77738;SDS011;66904;59.926;30.404;2023-07-20T13:29:50;3.72;;;0.80;;
77738;SDS011;66904;59.926;30.404;2023-07-20T13:34:50;1.45;;;0.35;;
77738;SDS011;66904;59.926;30.404;2023-07-20T13:39:51;1.10;;;0.35;;
77738;SDS011;66904;59.926;30.404;2023-07-20T13:44:51;0.52;;;0.30;;
77738;SDS011;66904;59.926;30.404;2023-07-20T13:49:52;0.77;;;0.63;;
77738;SDS011;66904;59.926;30.404;2023-07-20T13:54:53;2.92;;;1.10;;
77738;SDS011;66904;59.926;30.404;2023-07-20T13:59:53;0.22;;;0.20;;
77738;SDS011;66904;59.926;30.404;2023-07-20T14:04:54;0.63;;;0.20;;
77738;SDS011;66904;59.926;30.404;2023-07-20T14:09:55;0.28;;;0.20;;
77738;SDS011;66904;59.926;30.404;2023-07-20T14:14:56;1.73;;;0.40;;
77738;SDS011;66904;59.926;30.404;2023-07-20T14:19:57;0.35;;;0.28;;
77738;SDS011;66904;59.926;30.404;2023-07-20T14:24:57;0.40;;;0.10;;
77738;SDS011;66904;59.926;30.404;2023-07-20T14:29:59;0.57;;;0.40;;
77738;SDS011;66904;59.926;30.404;2023-07-20T14:34:59;1.00;;;0.17;;
77738;SDS011;66904;59.926;30.404;2023-07-20T14:40:00;0.47;;;0.40;;
77738;SDS011;66904;59.926;30.404;2023-07-20T14:45:00;1.15;;;0.47;;
77738;SDS011;66904;59.926;30.404;2023-07-20T14:50:02;1.23;;;0.50;;
77738;SDS011;66904;59.926;30.404;2023-07-20T14:55:03;3.75;;;0.57;;
77738;SDS011;66904;59.926;30.404;2023-07-20T15:00:04;1.10;;;0.45;;
77738;SDS011;66904;59.926;30.404;2023-07-20T15:05:08;0.50;;;0.30;;
77738;SDS011;66904;59.926;30.404;2023-07-20T15:10:09;0.90;;;0.32;;
77738;SDS011;66904;59.926;30.404;2023-07-20T15:15:10;0.73;;;0.30;;
77738;SDS011;66904;59.926;30.404;2023-07-20T15:20:13;0.57;;;0.50;;
77738;SDS011;66904;59.926;30.404;2023-07-20T15:25:14;2.22;;;0.63;;
77738;SDS011;66904;59.926;30.404;2023-07-20T15:30:15;2.88;;;0.30;;
77738;SDS011;66904;59.926;30.404;2023-07-20T15:35:16;0.40;;;0.40;;
77738;SDS011;66904;59.926;30.404;2023-07-20T15:40:17;0.38;;;0.35;;
77738;SDS011;66904;59.926;30.404;2023-07-20T15:45:18;0.85;;;0.40;;
77738;SDS011;66904;59.926;30.404;2023-07-20T15:50:19;0.88;;;0.50;;
77738;SDS011;66904;59.926;30.404;2023-07-20T15:55:19;2.72;;;0.30;;
77738;SDS011;66904;59.926;30.404;2023-07-20T16:00:20;0.52;;;0.52;;
77738;SDS011;66904;59.926;30.404;2023-07-20T16:05:20;0.50;;;0.30;;
77738;SDS011;66904;59.926;30.404;2023-07-20T16:10:21;0.50;;;0.30;;
77738;SDS011;66904;59.926;30.404;2023-07-20T16:15:21;0.47;;;0.20;;
77738;SDS011;66904;59.926;30.404;2023-07-20T16:20:23;0.73;;;0.73;;
77738;SDS011;66904;59.926;30.404;2023-07-20T16:25:23;2.08;;;0.43;;
77738;SDS011;66904;59.926;30.404;2023-07-20T16:30:24;1.00;;;0.75;;
77738;SDS011;66904;59.926;30.404;2023-07-20T16:35:27;1.02;;;0.55;;
77738;SDS011;66904;59.926;30.404;2023-07-20T16:40:27;0.70;;;0.40;;
77738;SDS011;66904;59.926;30.404;2023-07-20T16:45:28;0.93;;;0.60;;
77738;SDS011;66904;59.926;30.404;2023-07-20T16:50:29;0.80;;;0.30;;
77738;SDS011;66904;59.926;30.404;2023-07-20T16:55:29;0.95;;;0.40;;
77738;SDS011;66904;59.926;30.404;2023-07-20T17:00:30;0.30;;;0.15;;
77738;SDS011;66904;59.926;30.404;2023-07-20T17:05:30;0.50;;;0.40;;
77738;SDS011;66904;59.926;30.404;2023-07-20T17:10:31;0.77;;;0.40;;
77738;SDS011;66904;59.926;30.404;2023-07-20T17:15:32;2.05;;;0.30;;
77738;SDS011;66904;59.926;30.404;2023-07-20T17:20:32;2.63;;;0.60;;
77738;SDS011;66904;59.926;30.404;2023-07-20T17:25:36;4.07;;;0.20;;
77738;SDS011;66904;59.926;30.404;2023-07-20T17:30:36;0.98;;;0.68;;
77738;SDS011;66904;59.926;30.404;2023-07-20T17:35:37;1.38;;;0.82;;
77738;SDS011;66904;59.926;30.404;2023-07-20T17:40:38;30.17;;;7.70;;
77738;SDS011;66904;59.926;30.404;2023-07-20T17:45:38;27.90;;;12.15;;
77738;SDS011;66904;59.926;30.404;2023-07-20T17:50:39;56.53;;;22.98;;
77738;SDS011;66904;59.926;30.404;2023-07-20T17:55:40;30.55;;;16.20;;
77738;SDS011;66904;59.926;30.404;2023-07-20T18:00:41;34.50;;;15.18;;
77738;SDS011;66904;59.926;30.404;2023-07-20T18:05:41;19.35;;;10.68;;
77738;SDS011;66904;59.926;30.404;2023-07-20T18:10:42;26.50;;;10.88;;
77738;SDS011;66904;59.926;30.404;2023-07-20T18:15:42;15.23;;;8.10;;
77738;SDS011;66904;59.926;30.404;2023-07-20T18:20:43;14.02;;;7.03;;
77738;SDS011;66904;59.926;30.404;2023-07-20T18:25:44;10.13;;;6.07;;
77738;SDS011;66904;59.926;30.404;2023-07-20T18:30:45;9.35;;;5.32;;
77738;SDS011;66904;59.926;30.404;2023-07-20T18:35:46;9.43;;;4.40;;
77738;SDS011;66904;59.926;30.404;2023-07-20T18:40:46;4.90;;;2.70;;
77738;SDS011;66904;59.926;30.404;2023-07-20T18:45:47;8.27;;;3.05;;
77738;SDS011;66904;59.926;30.404;2023-07-20T18:50:47;5.72;;;3.15;;
77738;SDS011;66904;59.926;30.404;2023-07-20T18:55:48;5.72;;;2.80;;
77738;SDS011;66904;59.926;30.404;2023-07-20T19:00:49;4.00;;;2.15;;
77738;SDS011;66904;59.926;30.404;2023-07-20T19:05:50;4.35;;;1.85;;
77738;SDS011;66904;59.926;30.404;2023-07-20T19:10:50;3.88;;;1.95;;
77738;SDS011;66904;59.926;30.404;2023-07-20T19:15:51;2.00;;;1.40;;
77738;SDS011;66904;59.926;30.404;2023-07-20T19:20:59;2.28;;;1.23;;
77738;SDS011;66904;59.926;30.404;2023-07-20T19:26:06;4.28;;;1.27;;
77738;SDS011;66904;59.926;30.404;2023-07-20T19:31:08;3.70;;;1.50;;
77738;SDS011;66904;59.926;30.404;2023-07-20T19:36:09;2.13;;;1.10;;
77738;SDS011;66904;59.926;30.404;2023-07-20T19:41:09;1.90;;;0.82;;
77738;SDS011;66904;59.926;30.404;2023-07-20T19:46:10;2.53;;;1.17;;
77738;SDS011;66904;59.926;30.404;2023-07-20T19:51:11;2.08;;;1.05;;
77738;SDS011;66904;59.926;30.404;2023-07-20T19:56:11;2.13;;;1.00;;
77738;SDS011;66904;59.926;30.404;2023-07-20T20:01:12;2.40;;;1.08;;
77738;SDS011;66904;59.926;30.404;2023-07-20T20:06:13;1.65;;;1.15;;
77738;SDS011;66904;59.926;30.404;2023-07-20T20:11:13;2.40;;;0.93;;
77738;SDS011;66904;59.926;30.404;2023-07-20T20:16:14;2.25;;;0.90;;
77738;SDS011;66904;59.926;30.404;2023-07-20T20:21:15;3.03;;;0.77;;
77738;SDS011;66904;59.926;30.404;2023-07-20T20:26:17;1.63;;;0.93;;
77738;SDS011;66904;59.926;30.404;2023-07-20T20:31:18;1.52;;;0.63;;
77738;SDS011;66904;59.926;30.404;2023-07-20T20:36:21;1.65;;;0.85;;
77738;SDS011;66904;59.926;30.404;2023-07-20T20:41:22;1.00;;;0.43;;
77738;SDS011;66904;59.926;30.404;2023-07-20T20:46:22;2.40;;;1.05;;
77738;SDS011;66904;59.926;30.404;2023-07-20T20:51:23;2.25;;;0.93;;
77738;SDS011;66904;59.926;30.404;2023-07-20T20:56:25;1.70;;;0.68;;
77738;SDS011;66904;59.926;30.404;2023-07-20T21:01:25;1.05;;;0.70;;
77738;SDS011;66904;59.926;30.404;2023-07-20T21:06:26;2.55;;;0.68;;
77738;SDS011;66904;59.926;30.404;2023-07-20T21:11:36;8.90;;;0.90;;
77738;SDS011;66904;59.926;30.404;2023-07-20T21:16:36;1.67;;;0.57;;
77738;SDS011;66904;59.926;30.404;2023-07-20T21:21:37;1.40;;;0.70;;
77738;SDS011;66904;59.926;30.404;2023-07-20T21:26:38;1.55;;;0.40;;
77738;SDS011;66904;59.926;30.404;2023-07-20T21:31:38;2.15;;;0.63;;
77738;SDS011;66904;59.926;30.404;2023-07-20T21:36:39;0.52;;;0.30;;
77738;SDS011;66904;59.926;30.404;2023-07-20T21:41:39;1.08;;;0.60;;
77738;SDS011;66904;59.926;30.404;2023-07-20T21:46:40;1.23;;;0.40;;
77738;SDS011;66904;59.926;30.404;2023-07-20T21:51:41;1.70;;;0.35;;
77738;SDS011;66904;59.926;30.404;2023-07-20T21:56:41;0.82;;;0.40;;
77738;SDS011;66904;59.926;30.404;2023-07-20T22:01:42;0.70;;;0.50;;
77738;SDS011;66904;59.926;30.404;2023-07-20T22:06:42;0.52;;;0.20;;
77738;SDS011;66904;59.926;30.404;2023-07-20T22:11:46;0.30;;;0.22;;
77738;SDS011;66904;59.926;30.404;2023-07-20T22:16:47;0.85;;;0.30;;
77738;SDS011;66904;59.926;30.404;2023-07-20T22:21:47;1.08;;;0.68;;
77738;SDS011;66904;59.926;30.404;2023-07-20T22:26:48;0.95;;;0.50;;
77738;SDS011;66904;59.926;30.404;2023-07-20T22:31:48;1.23;;;0.50;;
77738;SDS011;66904;59.926;30.404;2023-07-20T22:36:49;0.47;;;0.35;;
77738;SDS011;66904;59.926;30.404;2023-07-20T22:41:50;0.85;;;0.28;;
77738;SDS011;66904;59.926;30.404;2023-07-20T22:46:50;1.00;;;0.35;;
77738;SDS011;66904;59.926;30.404;2023-07-20T22:51:51;1.40;;;1.02;;
77738;SDS011;66904;59.926;30.404;2023-07-20T22:56:52;2.03;;;0.40;;
77738;SDS011;66904;59.926;30.404;2023-07-20T23:01:52;0.88;;;0.40;;
77738;SDS011;66904;59.926;30.404;2023-07-20T23:06:53;0.50;;;0.30;;
77738;SDS011;66904;59.926;30.404;2023-07-20T23:11:54;0.43;;;0.30;;
77738;SDS011;66904;59.926;30.404;2023-07-20T23:16:55;0.75;;;0.60;;
77738;SDS011;66904;59.926;30.404;2023-07-20T23:21:57;0.52;;;0.40;;
77738;SDS011;66904;59.926;30.404;2023-07-20T23:26:58;0.20;;;0.10;;
77738;SDS011;66904;59.926;30.404;2023-07-20T23:32:01;0.43;;;0.30;;
77738;SDS011;66904;59.926;30.404;2023-07-20T23:37:03;0.88;;;0.60;;
77738;SDS011;66904;59.926;30.404;2023-07-20T23:42:04;0.80;;;0.30;;
77738;SDS011;66904;59.926;30.404;2023-07-20T23:47:07;0.63;;;0.30;;
77738;SDS011;66904;59.926;30.404;2023-07-20T23:52:09;1.42;;;0.98;;
77738;SDS011;66904;59.926;30.404;2023-07-20T23:57:09;2.58;;;0.90;;
